Saint Francis, Maine
Current Conditions -  °F | °C
As of 7:53 PM on Tuesday 21 Oct 2014 (Local Time) from KFVE Reporting Station
Overcast Overcast  
Wind Chill: 34°   Ceiling: 6000
Heat Index: 39°   Visibility: 10mi
Dew Point: 27°   Wind: 7mph
Humidity: 62%   Direction: 10°N
Pressure: 30.2"   Gusts: NA
Location:  47.17°N, 68.89°W
Report Text: KFVE 212353Z AUTO 01006KT 10SM OVC060 04/M03 A3020 RMK AO2 SLP237 T00391028 10072 20033 51015
Loading
Personal Weather Stations






























Interactive Weather Map
Tropical Storm Tracking
New forecast layout! Learn more

10-Day Weather Forecast

Advertisements
Track Severe Weather on mobile